createdAt,value
2024-02-24T00:00:33.444Z,95.86
2024-02-24T00:03:24.040Z,95.99
2024-02-24T00:05:55.210Z,95.94
2024-02-24T00:08:26.505Z,95.91
2024-02-24T00:10:58.178Z,95.81
2024-02-24T00:13:29.153Z,95.63
2024-02-24T00:16:00.466Z,95.57
2024-02-24T00:18:31.748Z,95.41
2024-02-24T00:21:02.942Z,95.35
2024-02-24T00:23:34.335Z,95.30
2024-02-24T00:26:06.070Z,95.20
2024-02-24T00:28:37.133Z,95.03
2024-02-24T00:31:08.290Z,94.87
2024-02-24T00:33:40.420Z,94.93
2024-02-24T00:36:12.502Z,94.82
2024-02-24T00:38:42.091Z,94.97
2024-02-24T00:41:13.193Z,95.20
2024-02-24T00:43:44.275Z,95.34
2024-02-24T00:46:15.255Z,95.30
2024-02-24T00:48:46.730Z,95.28
2024-02-24T00:51:17.717Z,95.27
2024-02-24T00:53:49.801Z,95.35
2024-02-24T00:56:22.650Z,95.35
2024-02-24T00:58:53.744Z,95.16
2024-02-24T01:01:25.179Z,95.11
2024-02-24T01:03:56.446Z,95.09
2024-02-24T01:06:27.558Z,94.91
2024-02-24T01:08:58.610Z,94.96
2024-02-24T01:11:29.776Z,94.89
2024-02-24T01:14:02.105Z,95.07
2024-02-24T01:16:33.402Z,95.13
2024-02-24T01:19:03.059Z,95.11
2024-02-24T01:21:34.382Z,95.29
2024-02-24T01:24:05.497Z,95.30
2024-02-24T01:26:36.721Z,95.22
2024-02-24T01:29:07.953Z,95.34
2024-02-24T01:31:37.624Z,95.49
2024-02-24T01:36:40.714Z,95.78
2024-02-24T01:39:11.752Z,95.76
2024-02-24T01:41:43.128Z,95.91
2024-02-24T01:44:19.331Z,96.03
2024-02-24T01:46:51.501Z,95.98
2024-02-24T01:49:22.872Z,95.98
2024-02-24T01:51:54.032Z,95.94
2024-02-24T01:54:26.189Z,96.12
2024-02-24T01:56:57.636Z,96.06
2024-02-24T01:59:29.312Z,96.01
2024-02-24T02:02:00.679Z,96.02
2024-02-24T02:04:31.754Z,96.00
2024-02-24T02:07:03.106Z,96.05
2024-02-24T02:09:34.271Z,96.09
2024-02-24T02:12:04.610Z,95.73
2024-02-24T02:14:35.956Z,95.68
2024-02-24T02:17:05.791Z,95.71
2024-02-24T02:19:36.941Z,95.57
2024-02-24T02:22:12.339Z,95.70
2024-02-24T02:24:43.673Z,95.77
2024-02-24T02:27:14.792Z,95.83
2024-02-24T02:29:44.415Z,95.76
2024-02-24T02:32:15.980Z,95.76
2024-02-24T02:34:47.140Z,95.73
2024-02-24T02:37:18.448Z,95.61
2024-02-24T02:39:48.256Z,95.61
2024-02-24T02:42:19.400Z,95.73
2024-02-24T02:44:50.647Z,95.76
2024-02-24T02:47:23.977Z,95.83
2024-02-24T02:49:56.010Z,95.92
2024-02-24T02:52:27.370Z,95.83
2024-02-24T02:54:58.940Z,95.69
2024-02-24T02:57:30.155Z,95.64
2024-02-24T02:59:59.764Z,95.61
2024-02-24T03:02:32.928Z,95.74
2024-02-24T03:05:04.245Z,95.88
2024-02-24T03:07:35.756Z,96.15
2024-02-24T03:10:08.353Z,96.09
2024-02-24T03:12:40.099Z,96.13
2024-02-24T03:15:11.996Z,96.24
2024-02-24T03:17:43.131Z,96.12
2024-02-24T03:20:15.156Z,96.13
2024-02-24T03:22:52.260Z,96.03
2024-02-24T03:25:21.878Z,96.13
2024-02-24T03:27:53.048Z,96.08
2024-02-24T03:30:23.960Z,95.99
2024-02-24T03:32:55.160Z,96.10
2024-02-24T03:35:24.853Z,96.09
2024-02-24T03:37:57.697Z,96.25
2024-02-24T03:40:28.879Z,96.29
2024-02-24T03:43:00.587Z,96.29
2024-02-24T03:45:33.347Z,96.32
2024-02-24T03:48:04.883Z,96.20
2024-02-24T03:50:36.145Z,96.33
2024-02-24T03:53:07.392Z,96.05
2024-02-24T03:55:36.917Z,96.24
2024-02-24T03:58:07.998Z,96.15
2024-02-24T04:00:37.597Z,95.90
2024-02-24T04:03:09.148Z,95.94
2024-02-24T04:05:40.503Z,95.81
2024-02-24T04:08:10.063Z,95.80
2024-02-24T04:10:41.185Z,95.72
2024-02-24T04:13:12.430Z,95.64
2024-02-24T04:15:49.504Z,95.70
2024-02-24T04:18:20.943Z,95.71
2024-02-24T04:20:52.260Z,95.75
2024-02-24T04:23:23.341Z,95.74
2024-02-24T04:25:54.473Z,95.79
2024-02-24T04:28:25.612Z,95.65
2024-02-24T04:30:56.588Z,95.64
2024-02-24T04:33:27.599Z,95.74
2024-02-24T04:35:58.984Z,95.62
2024-02-24T04:38:30.112Z,95.54
2024-02-24T04:41:01.173Z,95.61
2024-02-24T04:43:34.849Z,95.60
2024-02-24T04:46:08.049Z,95.47
2024-02-24T04:48:39.508Z,95.39
2024-02-24T04:51:11.231Z,95.44
2024-02-24T04:53:42.184Z,95.30
2024-02-24T04:56:16.371Z,95.38
2024-02-24T04:58:47.668Z,95.37
2024-02-24T05:01:20.634Z,95.43
2024-02-24T05:03:51.639Z,95.22
2024-02-24T05:06:23.861Z,95.26
2024-02-24T05:08:55.156Z,95.33
2024-02-24T05:11:25.887Z,95.44
2024-02-24T05:13:56.951Z,95.37
2024-02-24T05:16:28.300Z,95.27
2024-02-24T05:18:59.408Z,95.26
2024-02-24T05:21:30.762Z,95.40
2024-02-24T05:24:01.878Z,95.56
2024-02-24T05:26:32.149Z,95.72
2024-02-24T05:29:01.632Z,95.76
2024-02-24T05:31:32.716Z,95.75
2024-02-24T05:34:04.070Z,95.92
2024-02-24T05:36:36.571Z,95.82
2024-02-24T05:39:07.957Z,95.85
2024-02-24T05:41:39.287Z,95.82
2024-02-24T05:44:09.051Z,95.85
2024-02-24T05:46:40.160Z,96.01
2024-02-24T05:49:11.250Z,95.90
2024-02-24T05:51:44.098Z,95.85
2024-02-24T05:54:15.203Z,95.99
2024-02-24T05:56:46.633Z,96.16
2024-02-24T05:59:17.781Z,96.16
2024-02-24T06:01:49.091Z,95.96
2024-02-24T06:04:22.257Z,95.92
2024-02-24T06:06:53.349Z,95.93
2024-02-24T06:09:22.927Z,96.00
2024-02-24T06:11:54.080Z,95.93
2024-02-24T06:14:25.521Z,96.02
2024-02-24T06:16:55.128Z,95.94
2024-02-24T06:19:26.260Z,96.17
2024-02-24T06:21:57.979Z,96.32
2024-02-24T06:24:27.700Z,96.55
2024-02-24T06:26:58.889Z,96.77
2024-02-24T06:29:30.034Z,96.79
2024-02-24T06:32:00.956Z,96.94
2024-02-24T06:34:50.762Z,97.01
2024-02-24T06:37:22.022Z,97.10
2024-02-24T06:39:53.254Z,97.03
2024-02-24T06:42:23.141Z,97.10
2024-02-24T06:44:54.366Z,97.08
2024-02-24T06:47:29.354Z,97.13
2024-02-24T06:50:00.834Z,97.26
2024-02-24T06:52:34.122Z,97.17
2024-02-24T06:55:05.513Z,97.19
2024-02-24T06:57:36.703Z,97.06
2024-02-24T07:00:10.141Z,97.05
2024-02-24T07:02:41.801Z,96.92
2024-02-24T07:05:13.131Z,96.80
2024-02-24T07:07:43.160Z,96.69
2024-02-24T07:10:14.517Z,96.51
2024-02-24T07:12:45.840Z,96.45
2024-02-24T07:15:17.175Z,96.33
2024-02-24T07:17:48.266Z,96.43
2024-02-24T07:20:18.002Z,96.33
2024-02-24T07:22:50.948Z,96.04
2024-02-24T07:25:22.061Z,95.96
2024-02-24T07:27:53.233Z,95.92
2024-02-24T07:30:22.817Z,95.73
2024-02-24T07:32:53.857Z,95.85
2024-02-24T07:35:23.432Z,95.75
2024-02-24T07:37:54.282Z,95.69
2024-02-24T07:40:25.340Z,95.57
2024-02-24T07:42:56.535Z,95.45
2024-02-24T07:45:27.745Z,95.20
2024-02-24T07:47:57.969Z,94.71
2024-02-24T07:50:29.502Z,94.65
2024-02-24T07:52:59.178Z,94.28
2024-02-24T07:55:30.135Z,94.07
2024-02-24T07:57:59.831Z,94.07
2024-02-24T08:00:31.046Z,94.12
2024-02-24T08:03:00.639Z,94.11
2024-02-24T08:05:31.797Z,93.97
2024-02-24T08:08:03.856Z,93.94
2024-02-24T08:10:34.885Z,93.74
2024-02-24T08:13:06.136Z,93.61
2024-02-24T08:15:37.164Z,93.65
2024-02-24T08:18:09.069Z,93.63
2024-02-24T08:20:40.132Z,93.17
2024-02-24T08:23:11.629Z,93.09
2024-02-24T08:25:42.943Z,92.88
2024-02-24T08:28:14.881Z,92.40
2024-02-24T08:30:46.016Z,92.11
2024-02-24T08:33:17.402Z,91.54
2024-02-24T08:35:48.795Z,91.74
2024-02-24T08:38:19.963Z,91.67
2024-02-24T08:41:07.381Z,91.54
2024-02-24T08:43:44.102Z,91.07
2024-02-24T08:46:13.684Z,90.65
2024-02-24T08:48:44.966Z,90.74
2024-02-24T08:51:14.489Z,90.73
2024-02-24T08:53:45.488Z,90.55
2024-02-24T08:58:51.892Z,88.92
2024-02-24T09:01:23.210Z,88.73
2024-02-24T09:03:54.653Z,89.08
2024-02-24T09:06:25.948Z,89.60
2024-02-24T09:08:57.129Z,89.16
2024-02-24T09:11:28.820Z,88.88
2024-02-24T09:14:00.062Z,89.52
2024-02-24T09:16:31.223Z,89.78
2024-02-24T09:19:02.450Z,88.49
2024-02-24T09:21:33.536Z,87.79
2024-02-24T09:24:03.079Z,86.52
2024-02-24T09:26:34.341Z,86.25
2024-02-24T09:29:05.223Z,85.73
2024-02-24T09:31:34.762Z,85.91
2024-02-24T09:34:06.837Z,85.19
2024-02-24T09:36:41.746Z,82.72
2024-02-24T09:39:13.625Z,82.12
2024-02-24T09:41:44.625Z,82.91
2024-02-24T09:44:16.454Z,82.45
2024-02-24T09:46:47.815Z,82.31
2024-02-24T09:49:19.048Z,82.63
2024-02-24T09:51:50.689Z,82.37
2024-02-24T09:54:21.873Z,82.76
2024-02-24T09:56:55.898Z,82.87
2024-02-24T09:59:28.157Z,81.84
2024-02-24T10:01:59.403Z,81.30
2024-02-24T10:04:30.862Z,81.85
2024-02-24T10:07:01.865Z,81.70
2024-02-24T10:09:34.779Z,81.75
2024-02-24T10:12:08.248Z,81.92
2024-02-24T10:14:39.239Z,81.56
2024-02-24T10:17:11.867Z,82.13
2024-02-24T10:20:00.245Z,82.23
2024-02-24T10:22:31.646Z,82.16
2024-02-24T10:25:01.247Z,82.86
2024-02-24T10:27:34.281Z,82.79
2024-02-24T10:30:08.496Z,83.24
2024-02-24T10:32:40.491Z,82.82
2024-02-24T10:35:13.104Z,81.03
2024-02-24T10:38:02.119Z,79.77
2024-02-24T10:40:38.009Z,79.54
2024-02-24T10:43:10.205Z,78.78
2024-02-24T10:45:41.700Z,80.18
2024-02-24T10:48:13.022Z,80.15
2024-02-24T10:50:46.972Z,80.08
2024-02-24T10:53:23.422Z,79.88
2024-02-24T10:55:56.498Z,80.36
2024-02-24T10:58:27.756Z,80.12
2024-02-24T11:00:58.930Z,79.62
2024-02-24T11:03:31.976Z,79.25
2024-02-24T11:06:04.148Z,79.58
2024-02-24T11:08:39.970Z,80.11
2024-02-24T11:11:13.950Z,80.19
2024-02-24T11:14:00.061Z,80.08
2024-02-24T11:16:40.482Z,79.44
2024-02-24T11:19:13.895Z,78.47
2024-02-24T11:22:05.146Z,79.08
2024-02-24T11:24:37.638Z,76.96
2024-02-24T11:27:09.127Z,76.86
2024-02-24T11:29:40.354Z,77.56
2024-02-24T11:32:18.023Z,77.17
2024-02-24T11:34:49.961Z,76.05
2024-02-24T11:37:22.196Z,76.30
2024-02-24T11:39:54.298Z,73.62
2024-02-24T11:42:25.816Z,73.18
2024-02-24T11:44:57.816Z,73.91
2024-02-24T11:47:31.345Z,74.27
2024-02-24T11:50:02.473Z,74.23
2024-02-24T11:52:35.950Z,73.05
2024-02-24T11:55:08.419Z,73.09
2024-02-24T11:57:39.657Z,73.31
2024-02-24T12:00:13.212Z,73.53
2024-02-24T12:02:44.289Z,74.74
2024-02-24T12:05:19.689Z,73.11
2024-02-24T12:07:51.022Z,73.15
2024-02-24T12:10:22.150Z,72.75
2024-02-24T12:12:53.631Z,71.37
2024-02-24T12:15:25.079Z,70.58
2024-02-24T12:17:56.621Z,71.72
2024-02-24T12:20:29.150Z,71.99
2024-02-24T12:23:06.157Z,72.43
2024-02-24T12:25:38.299Z,72.55
2024-02-24T12:28:09.608Z,71.23
2024-02-24T12:30:41.550Z,71.46
2024-02-24T12:33:17.881Z,71.51
2024-02-24T12:35:50.841Z,71.46
2024-02-24T12:38:22.101Z,71.71
2024-02-24T12:40:53.295Z,72.22
2024-02-24T12:43:24.520Z,73.62
2024-02-24T12:45:54.160Z,73.69
2024-02-24T12:48:26.421Z,73.31
2024-02-24T12:50:58.196Z,73.06
2024-02-24T12:53:29.779Z,73.37
2024-02-24T12:56:01.371Z,72.93
2024-02-24T12:58:35.283Z,72.90
2024-02-24T13:01:08.160Z,72.78
2024-02-24T13:03:39.730Z,71.83
2024-02-24T13:06:11.231Z,71.67
2024-02-24T13:08:42.397Z,71.21
2024-02-24T13:11:13.864Z,70.71
2024-02-24T13:13:45.224Z,69.53
2024-02-24T13:16:16.242Z,68.51
2024-02-24T13:18:47.340Z,69.26
2024-02-24T13:21:18.726Z,69.38
2024-02-24T13:23:49.850Z,70.05
2024-02-24T13:26:21.006Z,67.43
2024-02-24T13:28:52.480Z,67.96
2024-02-24T13:31:23.534Z,69.28
2024-02-24T13:34:38.537Z,69.61
2024-02-24T13:37:29.086Z,70.15
2024-02-24T13:40:00.332Z,69.33
2024-02-24T13:42:33.513Z,69.46
2024-02-24T13:45:06.887Z,71.70
2024-02-24T13:47:38.536Z,69.69
2024-02-24T13:50:11.203Z,70.22
2024-02-24T13:52:42.440Z,68.90
2024-02-24T13:55:13.679Z,68.38
2024-02-24T13:57:44.780Z,67.25
2024-02-24T14:00:17.300Z,66.65
2024-02-24T14:02:48.362Z,66.60
2024-02-24T14:05:19.912Z,66.08
2024-02-24T14:07:51.216Z,66.13
2024-02-24T14:10:22.188Z,64.12
2024-02-24T14:12:53.079Z,63.56
2024-02-24T14:15:23.229Z,63.72
2024-02-24T14:17:55.815Z,65.25
2024-02-24T14:20:32.892Z,64.09
2024-02-24T14:23:04.580Z,62.49
2024-02-24T14:25:37.511Z,61.82
2024-02-24T14:28:14.539Z,64.47
2024-02-24T14:30:46.341Z,65.23
2024-02-24T14:33:17.848Z,65.85
2024-02-24T14:35:48.984Z,65.33
2024-02-24T14:38:20.002Z,64.70
2024-02-24T14:40:53.175Z,64.82
2024-02-24T14:43:24.402Z,65.20
2024-02-24T14:45:55.435Z,66.34
2024-02-24T14:48:26.919Z,67.27
2024-02-24T14:50:58.058Z,65.17
2024-02-24T14:53:29.243Z,65.47
2024-02-24T14:56:00.232Z,65.66
2024-02-24T14:58:31.434Z,66.21
2024-02-24T15:01:02.385Z,67.12
2024-02-24T15:03:38.120Z,67.59
2024-02-24T15:06:09.810Z,66.36
2024-02-24T15:08:41.066Z,65.89
2024-02-24T15:11:12.650Z,66.29
2024-02-24T15:13:43.575Z,65.76
2024-02-24T15:16:14.748Z,66.13
2024-02-24T15:18:45.066Z,64.58
2024-02-24T15:21:16.507Z,63.75
2024-02-24T15:23:47.684Z,62.17
2024-02-24T15:26:18.797Z,61.44
2024-02-24T15:28:50.083Z,60.91
2024-02-24T15:31:23.374Z,61.16
2024-02-24T15:33:55.395Z,60.15
2024-02-24T15:36:28.004Z,60.50
2024-02-24T15:38:59.640Z,60.78
2024-02-24T15:41:30.870Z,58.99
2024-02-24T15:44:02.529Z,58.99
2024-02-24T15:46:33.611Z,58.69
2024-02-24T15:49:04.943Z,58.62
2024-02-24T15:51:36.139Z,58.03
2024-02-24T15:54:07.289Z,58.71
2024-02-24T15:56:38.452Z,59.59
2024-02-24T15:59:09.511Z,60.63
2024-02-24T16:01:41.850Z,61.94
2024-02-24T16:04:12.906Z,62.58
2024-02-24T16:06:47.018Z,62.85
2024-02-24T16:09:18.530Z,63.43
2024-02-24T16:11:49.780Z,64.33
2024-02-24T16:14:21.114Z,65.06
2024-02-24T16:16:52.136Z,65.68
2024-02-24T16:19:23.427Z,66.69
2024-02-24T16:21:54.643Z,67.33
2024-02-24T16:24:28.698Z,68.47
2024-02-24T16:27:01.535Z,69.20
2024-02-24T16:29:33.676Z,69.85
2024-02-24T16:32:07.494Z,70.54
2024-02-24T16:34:40.395Z,71.30
2024-02-24T16:37:12.964Z,72.60
2024-02-24T16:39:44.095Z,73.81
2024-02-24T16:42:14.981Z,75.09
2024-02-24T16:44:48.417Z,75.95
2024-02-24T16:47:21.264Z,76.37
2024-02-24T16:49:52.533Z,76.66
2024-02-24T16:52:24.165Z,76.87
2024-02-24T16:54:55.163Z,77.24
2024-02-24T16:57:24.699Z,77.53
2024-02-24T16:59:55.550Z,77.79
2024-02-24T17:02:25.071Z,78.35
2024-02-24T17:04:57.218Z,78.78
2024-02-24T17:07:28.333Z,79.06
2024-02-24T17:09:59.389Z,79.58
2024-02-24T17:12:32.214Z,79.72
2024-02-24T17:15:03.620Z,79.88
2024-02-24T17:17:35.682Z,80.10
2024-02-24T17:20:09.295Z,80.19
2024-02-24T17:22:40.922Z,80.52
2024-02-24T17:25:12.856Z,80.77
2024-02-24T17:27:46.681Z,80.93
2024-02-24T17:30:38.074Z,81.35
2024-02-24T17:33:10.861Z,81.65
2024-02-24T17:35:42.608Z,81.79
2024-02-24T17:38:13.926Z,82.12
2024-02-24T17:40:44.968Z,82.50
2024-02-24T17:43:16.037Z,82.74
2024-02-24T17:45:45.814Z,83.06
2024-02-24T17:48:18.071Z,83.18
2024-02-24T17:50:49.381Z,83.31
2024-02-24T17:53:19.752Z,83.27
2024-02-24T17:55:51.716Z,83.62
2024-02-24T17:58:32.055Z,83.59
2024-02-24T18:01:08.287Z,83.68
2024-02-24T18:03:39.430Z,83.83
2024-02-24T18:06:11.947Z,83.78
2024-02-24T18:08:43.168Z,83.80
2024-02-24T18:11:13.350Z,84.20
2024-02-24T18:13:44.360Z,84.51
2024-02-24T18:16:15.296Z,84.67
2024-02-24T18:18:46.613Z,84.68
2024-02-24T18:21:22.038Z,84.73
2024-02-24T18:23:53.751Z,84.63
2024-02-24T18:26:24.724Z,84.87
2024-02-24T18:29:01.987Z,84.90
2024-02-24T18:31:50.276Z,84.78
2024-02-24T18:34:21.893Z,85.04
2024-02-24T18:36:53.002Z,85.17
2024-02-24T18:39:24.061Z,85.10
2024-02-24T18:41:55.157Z,85.33
2024-02-24T18:44:24.658Z,85.23
2024-02-24T18:46:55.561Z,85.08
2024-02-24T18:49:29.936Z,85.58
2024-02-24T18:52:01.043Z,85.81
2024-02-24T18:54:33.049Z,85.83
2024-02-24T18:57:04.642Z,85.69
2024-02-24T18:59:35.697Z,85.74
2024-02-24T19:02:08.132Z,85.78
2024-02-24T19:04:39.536Z,85.82
2024-02-24T19:07:14.457Z,85.98
2024-02-24T19:09:46.377Z,86.00
2024-02-24T19:12:18.331Z,86.19
2024-02-24T19:14:54.741Z,86.27
2024-02-24T19:17:29.788Z,86.31
2024-02-24T19:20:00.989Z,86.28
2024-02-24T19:22:33.965Z,86.51
2024-02-24T19:25:05.370Z,86.63
2024-02-24T19:27:34.682Z,86.75
2024-02-24T19:30:07.711Z,86.86
2024-02-24T19:32:38.859Z,86.57
2024-02-24T19:35:11.042Z,86.62
2024-02-24T19:37:42.306Z,86.71
2024-02-24T19:40:13.800Z,86.78
2024-02-24T19:42:46.387Z,87.04
2024-02-24T19:45:17.771Z,87.36
2024-02-24T19:48:04.881Z,87.45
2024-02-24T19:50:36.890Z,87.67
2024-02-24T19:53:07.978Z,87.87
2024-02-24T19:55:39.017Z,87.99
2024-02-24T19:58:20.637Z,87.86
2024-02-24T20:00:55.722Z,87.68
2024-02-24T20:03:26.689Z,87.72
2024-02-24T20:05:56.555Z,87.50
2024-02-24T20:08:27.718Z,87.85
2024-02-24T20:10:58.891Z,88.02
2024-02-24T20:13:30.005Z,88.02
2024-02-24T20:15:59.633Z,88.04
2024-02-24T20:18:31.771Z,88.15
2024-02-24T20:21:04.120Z,88.28
2024-02-24T20:23:36.095Z,88.10
2024-02-24T20:26:07.486Z,88.14
2024-02-24T20:28:42.720Z,88.28
2024-02-24T20:31:15.997Z,88.40
2024-02-24T20:33:53.496Z,88.59
2024-02-24T20:36:31.281Z,88.60
2024-02-24T20:39:02.636Z,88.56
2024-02-24T20:41:33.987Z,88.50
2024-02-24T20:44:05.301Z,88.53
2024-02-24T20:46:36.514Z,88.24
2024-02-24T20:49:07.644Z,88.43
2024-02-24T20:51:38.762Z,88.87
2024-02-24T20:54:10.003Z,89.00
2024-02-24T20:56:39.748Z,88.94
2024-02-24T20:59:10.769Z,89.14
2024-02-24T21:01:41.763Z,88.94
2024-02-24T21:04:12.950Z,88.80
2024-02-24T21:06:46.715Z,88.77
2024-02-24T21:09:18.033Z,88.68
2024-02-24T21:11:48.998Z,88.82
2024-02-24T21:14:22.542Z,88.93
2024-02-24T21:16:53.751Z,89.03
2024-02-24T21:19:25.196Z,89.09
2024-02-24T21:21:57.083Z,89.16
2024-02-24T21:24:28.145Z,89.08
2024-02-24T21:26:57.758Z,89.01
2024-02-24T21:29:29.158Z,88.91
2024-02-24T21:32:00.286Z,88.95
2024-02-24T21:34:32.835Z,89.16
2024-02-24T21:37:03.955Z,89.18
2024-02-24T21:39:35.792Z,88.99
2024-02-24T21:42:08.494Z,89.17
2024-02-24T21:44:39.677Z,89.22
2024-02-24T21:47:09.645Z,89.02
2024-02-24T21:49:40.865Z,89.08
2024-02-24T21:52:12.034Z,89.16
2024-02-24T21:54:42.830Z,89.32
2024-02-24T21:57:13.839Z,89.23
2024-02-24T21:59:44.866Z,89.43
2024-02-24T22:02:15.954Z,89.24
2024-02-24T22:04:47.146Z,89.11
2024-02-24T22:07:19.513Z,88.98
2024-02-24T22:09:50.961Z,89.40
2024-02-24T22:12:22.169Z,89.71
2024-02-24T22:14:53.444Z,89.68
2024-02-24T22:17:25.338Z,89.58
2024-02-24T22:19:56.415Z,89.41
2024-02-24T22:22:27.597Z,89.64
2024-02-24T22:24:58.575Z,89.42
2024-02-24T22:27:30.329Z,89.63
2024-02-24T22:30:08.812Z,89.46
2024-02-24T22:32:47.249Z,89.57
2024-02-24T22:35:18.406Z,89.44
2024-02-24T22:37:49.341Z,89.88
2024-02-24T22:40:20.317Z,89.88
2024-02-24T22:42:51.432Z,89.84
2024-02-24T22:45:22.608Z,90.01
2024-02-24T22:47:53.788Z,89.90
2024-02-24T22:50:24.890Z,89.64
2024-02-24T22:52:56.115Z,90.03
2024-02-24T22:55:28.559Z,90.24
2024-02-24T22:57:59.703Z,90.39
2024-02-24T23:00:30.774Z,90.06
2024-02-24T23:03:02.057Z,89.94
2024-02-24T23:05:31.684Z,90.19
2024-02-24T23:08:03.914Z,90.12
2024-02-24T23:10:34.922Z,89.79
2024-02-24T23:13:06.150Z,89.64
2024-02-24T23:15:37.235Z,89.81
2024-02-24T23:18:09.305Z,90.13
2024-02-24T23:20:40.513Z,90.10
2024-02-24T23:23:11.967Z,90.17
2024-02-24T23:25:44.338Z,90.49
2024-02-24T23:28:16.371Z,90.38
2024-02-24T23:30:47.226Z,90.47
2024-02-24T23:33:18.427Z,90.52
2024-02-24T23:35:50.220Z,90.15
2024-02-24T23:38:21.836Z,90.04
2024-02-24T23:40:52.930Z,89.99
2024-02-24T23:43:24.025Z,89.98
2024-02-24T23:45:54.936Z,90.09
2024-02-24T23:48:26.174Z,90.32
2024-02-24T23:50:59.503Z,90.07
2024-02-24T23:53:30.863Z,90.13
2024-02-24T23:56:02.208Z,90.45
2024-02-24T23:58:31.791Z,90.17
